Time;durP1;ratioP1;P1;durP2;ratioP2;P2;SDS_P1;SDS_P2;PMS_P1;PMS_P2;Temp;Humidity;BMP_temperature;BMP_pressure;BME280_temperature;BME280_humidity;BME280_pressure;Samples;Min_cycle;Max_cycle;Signal;HPM_P1;HPM_P2
2022/05/22 00:02:20;;;;;;;112.47;58.08;;;;;;;26.57;61.49;96830.94;4892537;29;20049;-62
2022/05/22 00:05:15;;;;;;;104.47;57.15;;;;;;;26.50;59.31;96829.28;4898466;29;20135;-62
2022/05/22 00:08:05;;;;;;;116.43;56.95;;;;;;;26.48;60.94;96831.28;4899757;29;20040;-62
2022/05/22 00:10:47;;;;;;;109.35;56.20;;;;;;;26.50;60.25;96837.19;4911810;29;20052;-62
2022/05/22 00:13:36;;;;;;;106.25;55.63;;;;;;;26.53;59.96;96834.16;4911712;29;20063;-62
2022/05/22 00:16:36;;;;;;;109.50;53.75;;;;;;;26.53;60.58;96845.53;4906349;29;20434;-62
2022/05/22 00:19:36;;;;;;;94.07;49.65;;;;;;;26.55;61.45;96843.53;4874235;29;20151;-62
2022/05/22 00:22:18;;;;;;;110.90;49.03;;;;;;;26.56;58.37;96849.63;4874612;29;20057;-62
2022/05/22 00:25:10;;;;;;;88.90;44.83;;;;;;;26.57;59.71;96849.44;4879218;29;20850;-62
2022/05/22 00:27:52;;;;;;;79.20;42.90;;;;;;;26.53;60.10;96850.00;4900066;29;20058;-62
2022/05/22 00:30:41;;;;;;;94.97;48.20;;;;;;;26.48;56.40;96857.69;4901899;29;20830;-62
2022/05/22 00:33:23;;;;;;;94.63;50.22;;;;;;;26.47;57.38;96853.41;4891727;29;20060;-62
2022/05/22 00:36:12;;;;;;;104.82;51.53;;;;;;;26.54;60.58;96851.63;4898678;29;20049;-62
2022/05/22 00:38:54;;;;;;;126.18;59.13;;;;;;;26.48;55.20;96858.50;4894807;29;20089;-62
2022/05/22 00:41:44;;;;;;;107.70;56.72;;;;;;;26.50;56.44;96855.69;4906734;29;20093;-61
2022/05/22 00:44:26;;;;;;;100.85;53.20;;;;;;;26.48;57.40;96860.34;4897934;29;20052;-62
2022/05/22 00:47:15;;;;;;;92.88;46.95;;;;;;;26.38;54.13;96858.00;4904439;29;20044;-62
2022/05/22 00:50:00;;;;;;;92.03;46.05;;;;;;;26.47;56.25;96871.91;4909655;29;20640;-61
2022/05/22 00:53:01;;;;;;;72.57;41.50;;;;;;;26.53;58.73;96871.13;4910058;29;20132;-62
2022/05/22 00:55:50;;;;;;;76.55;39.28;;;;;;;26.56;55.63;96876.03;4910304;29;20051;-61
2022/05/22 00:58:39;;;;;;;71.68;39.17;;;;;;;26.55;54.76;96879.69;4910961;29;20040;-62
2022/05/22 01:01:22;;;;;;;71.40;37.97;;;;;;;26.61;56.82;96884.22;4900672;29;20505;-62
2022/05/22 01:04:15;;;;;;;73.93;37.47;;;;;;;26.63;56.50;96872.44;4891584;29;20067;-62
2022/05/22 01:06:59;;;;;;;77.15;35.13;;;;;;;26.61;55.76;96873.63;4883506;29;20578;-62
2022/05/22 01:09:48;;;;;;;73.95;36.35;;;;;;;26.72;55.65;96874.94;4876538;29;20060;-62
2022/05/22 01:12:45;;;;;;;61.80;31.85;;;;;;;26.80;57.36;96878.28;4890468;29;20068;-62
2022/05/22 01:15:21;;;;;;;70.63;31.83;;;;;;;26.88;60.34;96882.59;4895376;29;20441;-62
2022/05/22 01:18:11;;;;;;;63.58;30.65;;;;;;;26.93;60.01;96891.59;4871879;29;20063;-62
2022/05/22 01:20:56;;;;;;;83.03;36.33;;;;;;;26.97;54.69;96897.34;4872398;29;20532;-62
2022/05/22 01:23:52;;;;;;;83.15;37.08;;;;;;;27.03;54.87;96900.03;4872979;29;20053;-62
2022/05/22 01:26:31;;;;;;;94.10;37.73;;;;;;;27.11;53.06;96903.53;4889213;29;20060;-63
2022/05/22 01:29:32;;;;;;;89.47;37.20;;;;;;;27.15;53.35;96912.69;4890262;29;20412;-62
2022/05/22 01:32:14;;;;;;;76.20;34.85;;;;;;;27.21;53.13;96911.94;4888482;29;20720;-62
2022/05/22 01:35:04;;;;;;;73.10;31.75;;;;;;;27.28;52.00;96918.09;4890885;29;20044;-62
2022/05/22 01:37:54;;;;;;;66.40;29.10;;;;;;;27.38;52.66;96926.47;4906060;29;20053;-62
2022/05/22 01:40:36;;;;;;;65.00;27.75;;;;;;;27.33;54.47;96920.97;4874731;29;20079;-61
2022/05/22 01:43:36;;;;;;;59.97;25.67;;;;;;;27.46;55.95;96921.03;4905741;29;20055;-60
2022/05/22 01:46:27;;;;;;;57.05;24.70;;;;;;;27.51;52.87;96918.63;4905944;29;20056;-62
2022/05/22 01:49:18;;;;;;;54.88;25.02;;;;;;;27.84;52.44;96918.00;4882628;29;20053;-62
2022/05/22 01:52:00;;;;;;;58.85;23.83;;;;;;;28.28;49.96;96923.66;4904635;29;20059;-62
2022/05/22 01:54:56;;;;;;;56.88;22.08;;;;;;;28.81;48.44;96926.41;4909075;29;20595;-62
2022/05/22 01:57:32;;;;;;;49.97;21.48;;;;;;;29.08;47.82;96922.72;4893220;29;20116;-62
2022/05/22 02:00:26;;;;;;;53.72;18.75;;;;;;;29.52;47.08;96924.72;4908511;29;20048;-62
2022/05/22 02:03:09;;;;;;;55.95;18.95;;;;;;;29.80;47.20;96932.38;4908901;29;20079;-62
2022/05/22 02:05:58;;;;;;;54.35;18.55;;;;;;;29.98;47.37;96931.75;4908668;29;20044;-62
2022/05/22 02:08:42;;;;;;;59.05;18.63;;;;;;;30.29;49.06;96946.91;4908748;29;20179;-62
2022/05/22 02:11:31;;;;;;;62.50;20.40;;;;;;;30.15;48.45;96945.34;4889331;29;20052;-62
2022/05/22 02:14:14;;;;;;;61.30;19.23;;;;;;;30.64;47.02;96940.19;4883970;29;20048;-62
2022/05/22 02:17:09;;;;;;;59.00;18.65;;;;;;;31.02;46.27;96948.06;4908900;29;20056;-63
2022/05/22 02:19:57;;;;;;;63.63;18.33;;;;;;;31.42;47.42;96953.06;4897523;29;20056;-62
2022/05/22 02:22:50;;;;;;;53.67;18.45;;;;;;;31.59;44.71;96959.44;4888998;29;20060;-62
2022/05/22 02:25:43;;;;;;;60.97;20.48;;;;;;;31.62;45.30;96952.88;4889499;29;20049;-63
2022/05/22 02:28:38;;;;;;;71.10;22.52;;;;;;;31.92;43.98;96959.13;4889336;29;20044;-63
2022/05/22 02:31:16;;;;;;;84.70;23.63;;;;;;;32.55;43.36;96964.06;4888921;29;20131;-62
2022/05/22 02:34:05;;;;;;;73.88;23.58;;;;;;;32.64;43.44;96962.69;4889726;29;20091;-63
2022/05/22 02:36:54;;;;;;;72.78;23.15;;;;;;;32.24;45.06;96963.25;4889190;29;20129;-61
2022/05/22 02:39:36;;;;;;;67.72;20.13;;;;;;;32.65;44.32;96958.97;4889233;29;20132;-61
2022/05/22 02:42:52;;;;;;;72.40;21.40;;;;;;;33.29;45.59;96954.69;4886803;29;20377;-61
2022/05/22 02:45:41;;;;;;;66.00;20.77;;;;;;;32.41;44.80;96950.06;4870460;29;20053;-62
2022/05/22 02:48:30;;;;;;;83.28;21.92;;;;;;;33.15;43.27;96961.28;4870765;29;20553;-61
2022/05/22 02:51:15;;;;;;;;;;;;;;;33.30;45.07;96959.81;4870464;29;20060;-62
2022/05/22 02:54:11;;;;;;;61.25;16.63;;;;;;;33.95;41.10;96967.69;4898029;29;19955;-62
2022/05/22 02:57:04;;;;;;;65.45;19.52;;;;;;;34.20;40.68;96962.03;4891324;29;20044;-62
2022/05/22 03:00:01;;;;;;;62.45;17.27;;;;;;;33.98;41.26;96958.38;4882324;29;20169;-63
2022/05/22 03:02:55;;;;;;;51.05;15.70;;;;;;;33.93;42.51;96960.94;4892817;29;20059;-61
2022/05/22 03:08:45;;;;;;;67.80;16.35;;;;;;;32.79;44.80;96955.09;4880468;29;20053;-62
2022/05/22 03:11:27;;;;;;;58.17;14.43;;;;;;;33.38;44.53;96958.66;4903216;29;20158;-62
2022/05/22 03:14:17;;;;;;;48.97;11.98;;;;;;;33.59;41.06;96965.28;4876005;29;20460;-62
2022/05/22 03:17:01;;;;;;;55.53;12.18;;;;;;;33.82;43.05;96957.25;4903773;29;20048;-62
2022/05/22 03:20:09;;;;;;;47.47;12.07;;;;;;;34.27;41.43;96957.38;4878162;29;20059;-62
2022/05/22 03:22:58;;;;;;;48.95;11.18;;;;;;;34.61;40.78;96957.47;4877714;29;20049;-62
2022/05/22 03:25:41;;;;;;;46.78;10.00;;;;;;;34.18;42.72;96953.41;4879735;29;20060;-61
2022/05/22 03:28:30;;;;;;;48.00;10.38;;;;;;;34.31;42.10;96955.06;4879926;29;20057;-62
2022/05/22 03:31:16;;;;;;;48.50;10.80;;;;;;;34.52;40.57;96957.03;4880020;29;20051;-62
2022/05/22 03:34:06;;;;;;;49.93;10.70;;;;;;;34.15;42.12;96946.72;4878859;29;20321;-62
2022/05/22 03:36:55;;;;;;;52.17;9.07;;;;;;;34.32;41.80;96946.78;4893564;29;20557;-62
2022/05/22 03:39:45;;;;;;;61.67;10.30;;;;;;;33.87;41.42;96940.50;4901557;29;20433;-62
2022/05/22 03:42:27;;;;;;;64.37;10.10;;;;;;;34.30;40.17;96940.88;4879420;29;20556;-62
2022/05/22 03:45:16;;;;;;;48.15;9.57;;;;;;;34.70;41.30;96939.97;4879084;29;20671;-62
2022/05/22 03:48:12;;;;;;;68.07;11.07;;;;;;;34.66;42.46;96946.84;4880004;29;20648;-62
2022/05/22 03:50:48;;;;;;;51.80;10.57;;;;;;;34.99;42.05;96946.09;4902249;29;20062;-62
2022/05/22 03:53:43;;;;;;;44.90;9.52;;;;;;;35.18;39.89;96947.47;4902988;28;20063;-62
2022/05/22 03:56:39;;;;;;;44.45;10.05;;;;;;;34.72;39.57;96944.00;4881344;29;20224;-61
2022/05/22 03:59:31;;;;;;;57.70;11.77;;;;;;;34.91;44.30;96936.59;4896482;29;20481;-61
2022/05/22 04:02:16;;;;;;;49.55;11.07;;;;;;;35.32;41.68;96943.41;4906384;29;20282;-61
2022/05/22 04:05:08;;;;;;;43.85;9.68;;;;;;;35.52;36.17;96949.06;4887993;29;20060;-62
2022/05/22 04:07:50;;;;;;;57.45;10.68;;;;;;;35.08;39.23;96948.13;4869490;29;20433;-62
2022/05/22 04:10:47;;;;;;;38.45;9.77;;;;;;;35.69;42.37;96946.34;4869391;29;20482;-61
2022/05/22 04:13:29;;;;;;;;;;;;;;;35.30;37.91;96949.03;4874634;29;20049;-62
2022/05/22 04:16:19;;;;;;;46.92;9.27;;;;;;;35.67;39.35;96943.13;4892067;29;19938;-62
2022/05/22 04:19:08;;;;;;;37.78;9.80;;;;;;;35.50;37.68;96948.50;4884016;29;20059;-63
2022/05/22 04:21:50;;;;;;;45.40;11.30;;;;;;;35.87;37.92;96956.78;4887760;29;20120;-62
2022/05/22 04:27:43;;;;;;;57.78;11.85;;;;;;;35.84;36.08;96953.81;4903636;29;20131;-63
2022/05/22 04:30:32;;;;;;;51.30;12.63;;;;;;;36.11;36.85;96960.03;4874411;29;20052;-62
2022/05/22 04:33:15;;;;;;;;;;;;;;;36.02;35.59;96948.94;4869780;29;20509;-62
2022/05/22 04:36:04;;;;;;;50.50;11.07;;;;;;;36.41;37.23;96951.53;4870705;29;20394;-62
2022/05/22 04:38:46;;;;;;;42.83;9.23;;;;;;;36.68;36.77;96941.66;4870495;29;20125;-62
2022/05/22 04:41:35;;;;;;;46.30;13.43;;;;;;;36.93;38.25;96950.97;4873085;29;20497;-62
2022/05/22 04:44:25;;;;;;;49.72;13.05;;;;;;;36.53;38.01;96944.16;4873976;29;20059;-61
2022/05/22 04:47:26;;;;;;;41.60;10.95;;;;;;;36.35;37.55;96947.19;4876138;29;20155;-62
2022/05/22 04:50:55;;;;;;;55.53;11.05;;;;;;;36.70;38.26;96950.25;4873237;29;20053;-62
2022/05/22 04:54:05;;;;;;;50.08;11.38;;;;;;;36.57;35.96;96944.44;4903572;28;20135;-62
2022/05/22 04:57:07;;;;;;;51.70;10.80;;;;;;;37.02;35.45;96944.88;4909930;29;20059;-62
2022/05/22 04:59:56;;;;;;;39.55;9.48;;;;;;;36.58;36.27;96946.06;4910196;29;20043;-63
2022/05/22 05:02:43;;;;;;;51.40;10.18;;;;;;;36.40;37.21;96949.91;4909958;29;20249;-62
2022/05/22 05:05:33;;;;;;;44.72;9.50;;;;;;;36.97;38.92;96949.38;4891424;29;20136;-63
2022/05/22 05:08:16;;;;;;;53.20;8.68;;;;;;;36.72;37.70;96950.78;4875309;29;20059;-62
2022/05/22 05:11:28;;;;;;;48.75;11.98;;;;;;;37.10;39.74;96948.97;4900454;29;20056;-62
2022/05/22 05:14:13;;;;;;;51.40;9.52;;;;;;;36.97;34.12;96955.56;4909649;29;20783;-62
2022/05/22 05:17:02;;;;;;;37.97;9.05;;;;;;;37.34;34.25;96952.94;4909840;29;20159;-63
2022/05/22 05:19:52;;;;;;;42.20;10.23;;;;;;;37.31;35.63;96948.06;4909576;29;20451;-62
2022/05/22 05:22:54;;;;;;;32.63;9.43;;;;;;;37.35;32.16;96951.06;4909340;29;20075;-62
2022/05/22 05:25:45;;;;;;;39.70;9.23;;;;;;;37.35;35.35;96954.56;4900125;29;20096;-62
2022/05/22 05:28:35;;;;;;;39.55;8.80;;;;;;;37.62;36.69;96950.97;4890610;29;20135;-63
2022/05/22 05:31:19;;;;;;;43.13;8.68;;;;;;;37.68;32.33;96956.09;4890413;29;20381;-63
2022/05/22 05:34:08;;;;;;;42.15;8.25;;;;;;;37.91;32.68;96953.00;4890692;29;20052;-63
2022/05/22 05:37:18;;;;;;;51.67;9.40;;;;;;;37.94;38.05;96954.34;4890030;29;20068;-62
2022/05/22 05:40:10;;;;;;;43.63;8.73;;;;;;;37.89;32.43;96952.47;4901203;29;20574;-62
2022/05/22 05:42:59;;;;;;;42.53;8.38;;;;;;;37.83;33.34;96947.31;4876193;29;20053;-62
2022/05/22 05:45:42;;;;;;;36.60;7.13;;;;;;;38.31;35.83;96945.38;4872400;29;20584;-61
2022/05/22 05:48:31;;;;;;;26.50;7.13;;;;;;;38.52;35.32;96953.25;4880390;29;20468;-62
2022/05/22 05:51:13;;;;;;;39.10;8.40;;;;;;;38.30;37.10;96947.25;4888100;29;20051;-62
2022/05/22 05:54:11;;;;;;;30.20;7.68;;;;;;;38.11;35.80;96943.41;4883098;29;20096;-62
2022/05/22 05:57:24;;;;;;;42.08;8.00;;;;;;;38.20;34.99;96941.84;4882934;29;20098;-63
2022/05/22 06:00:17;;;;;;;34.28;7.25;;;;;;;37.86;33.53;96939.53;4905034;29;20065;-63
2022/05/22 06:03:07;;;;;;;;;;;;;;;38.12;32.84;96940.47;4904131;29;20052;-62
2022/05/22 06:06:13;;;;;;;35.30;7.93;;;;;;;37.87;30.04;96937.66;4882435;29;20565;-63
2022/05/22 06:08:50;;;;;;;35.60;7.63;;;;;;;36.99;31.24;96936.53;4883879;29;20108;-63
2022/05/22 06:11:42;;;;;;;29.63;6.22;;;;;;;36.80;30.44;96923.47;4889412;29;20052;-63
2022/05/22 06:14:44;;;;;;;30.98;7.45;;;;;;;37.58;31.38;96933.72;4890415;29;20052;-62
2022/05/22 06:17:36;;;;;;;35.83;8.15;;;;;;;37.58;29.95;96925.66;4889176;29;20052;-63
2022/05/22 06:20:30;;;;;;;33.42;7.50;;;;;;;37.49;32.17;96926.16;4884898;29;20048;-63
2022/05/22 06:23:21;;;;;;;26.67;6.82;;;;;;;37.89;33.12;96924.75;4895493;29;20073;-61
2022/05/22 06:26:33;;;;;;;39.22;8.02;;;;;;;38.11;33.26;96916.50;4892768;29;20062;-61
2022/05/22 06:29:44;;;;;;;40.72;7.40;;;;;;;38.22;30.98;96915.47;4885236;29;20060;-63
2022/05/22 06:32:40;;;;;;;33.03;6.35;;;;;;;37.84;29.86;96916.66;4879804;29;20049;-63
2022/05/22 06:35:49;;;;;;;36.42;8.10;;;;;;;37.88;33.80;96907.81;4871928;29;20080;-63
2022/05/22 06:42:12;;;;;;;40.17;8.30;;;;;;;37.83;30.15;96909.69;4879556;29;20052;-63
2022/05/22 06:45:26;;;;;;;36.28;8.20;;;;;;;38.04;29.16;96910.53;4880030;29;20117;-63
2022/05/22 06:48:27;;;;;;;28.75;6.90;;;;;;;38.09;29.92;96906.00;4876487;29;20261;-62
2022/05/22 06:51:48;;;;;;;35.15;8.52;;;;;;;37.96;33.94;96903.78;4871419;29;20143;-63
2022/05/22 06:55:06;;;;;;;35.28;6.97;;;;;;;37.81;30.93;96895.69;4866496;29;20072;-63
2022/05/22 06:58:22;;;;;;;27.77;7.57;;;;;;;37.59;32.13;96889.66;4836375;29;20060;-63
2022/05/22 07:01:31;;;;;;;33.55;7.80;;;;;;;37.31;29.92;96886.28;4866118;29;20136;-63
2022/05/22 07:04:45;;;;;;;26.73;7.95;;;;;;;37.48;30.87;96880.72;4870730;29;20063;-63
2022/05/22 07:08:00;;;;;;;41.67;7.38;;;;;;;37.63;31.25;96880.00;4855375;29;20049;-63
2022/05/22 07:14:45;;;;;;;35.53;7.85;;;;;;;37.68;30.60;96872.75;4857330;29;20056;-64
2022/05/22 07:17:57;;;;;;;33.17;7.47;;;;;;;37.74;30.16;96873.59;4861613;29;20049;-62
2022/05/22 07:20:56;;;;;;;44.58;8.23;;;;;;;37.84;32.33;96879.00;4861781;29;20876;-63
2022/05/22 07:24:01;;;;;;;36.97;6.95;;;;;;;37.71;30.59;96871.44;4861577;29;20045;-62
2022/05/22 07:27:06;;;;;;;27.02;6.82;;;;;;;37.69;31.53;96871.69;4839455;29;20056;-63
2022/05/22 07:30:14;;;;;;;38.38;7.57;;;;;;;37.34;29.48;96864.25;4860404;29;20083;-63
2022/05/22 07:33:12;;;;;;;31.10;6.65;;;;;;;37.53;27.23;96862.72;4857553;29;20049;-63
2022/05/22 07:36:12;;;;;;;29.90;7.13;;;;;;;37.54;30.23;96864.34;4849420;29;20057;-63
2022/05/22 07:39:20;;;;;;;38.03;7.50;;;;;;;37.72;31.54;96862.28;4851285;29;20059;-62
2022/05/22 07:42:23;;;;;;;35.25;6.47;;;;;;;37.80;30.98;96851.03;4850867;29;20050;-63
2022/05/22 07:45:43;;;;;;;29.35;8.13;;;;;;;37.79;30.54;96849.41;4844216;29;20121;-62
2022/05/22 07:48:46;;;;;;;29.38;6.88;;;;;;;37.64;32.59;96850.16;4847956;29;20518;-63
2022/05/22 07:51:34;;;;;;;28.50;7.20;;;;;;;37.64;34.38;96842.09;4861613;29;20060;-62
2022/05/22 07:54:49;;;;;;;24.38;6.40;;;;;;;37.55;30.34;96840.97;4859965;29;20128;-62
2022/05/22 07:58:12;;;;;;;22.23;6.45;;;;;;;37.66;31.57;96834.59;4899066;29;20060;-62
2022/05/22 08:01:10;;;;;;;21.42;6.90;;;;;;;37.62;28.31;96832.69;4882603;29;20045;-62
2022/05/22 08:04:11;;;;;;;28.77;7.07;;;;;;;37.64;29.65;96825.97;4880598;29;20049;-63
2022/05/22 08:07:19;;;;;;;18.80;5.82;;;;;;;37.57;28.02;96819.19;4874345;29;20053;-61
2022/05/22 08:10:19;;;;;;;30.33;5.65;;;;;;;37.48;27.41;96821.59;4878156;29;20083;-63
2022/05/22 08:13:14;;;;;;;29.10;6.07;;;;;;;37.64;28.76;96817.09;4867509;29;20160;-62
2022/05/22 08:16:03;;;;;;;22.23;5.05;;;;;;;37.06;26.89;96818.94;4905670;29;20056;-63
2022/05/22 08:18:46;;;;;;;22.27;4.78;;;;;;;37.29;27.02;96807.78;4901209;29;20045;-62
2022/05/22 08:21:36;;;;;;;15.68;5.35;;;;;;;37.24;25.31;96799.72;4877345;29;20497;-62
2022/05/22 08:24:21;;;;;;;30.50;7.80;;;;;;;37.37;25.95;96791.16;4882919;29;20075;-63
2022/05/22 08:27:10;;;;;;;18.02;5.22;;;;;;;37.46;26.53;96797.66;4869129;29;20052;-64
2022/05/22 08:29:53;;;;;;;;;;;;;;;37.50;26.67;96784.50;4889740;29;20056;-63
2022/05/22 08:32:46;;;;;;;13.18;4.32;;;;;;;37.38;29.40;96776.66;4890963;29;20496;-63
2022/05/22 08:35:34;;;;;;;30.88;4.88;;;;;;;37.43;29.57;96771.31;4890933;29;20053;-63
2022/05/22 08:38:29;;;;;;;27.90;5.10;;;;;;;37.33;27.44;96773.16;4881154;29;20049;-63
2022/05/22 08:41:23;;;;;;;18.00;4.30;;;;;;;37.40;25.16;96768.34;4879872;29;20531;-63
2022/05/22 08:44:13;;;;;;;13.32;4.65;;;;;;;37.38;28.72;96763.22;4872821;29;20049;-63
2022/05/22 08:47:19;;;;;;;14.32;4.68;;;;;;;37.46;27.25;96760.03;4872871;29;20057;-63
2022/05/22 08:50:12;;;;;;;18.13;4.50;;;;;;;37.48;30.01;96755.19;4878624;29;20844;-64
2022/05/22 08:53:06;;;;;;;15.73;4.57;;;;;;;37.43;29.65;96754.38;4887119;29;20116;-62
2022/05/22 08:59:16;;;;;;;15.30;4.55;;;;;;;37.27;27.24;96739.28;4871833;29;20060;-64
2022/05/22 09:02:17;;;;;;;17.45;4.00;;;;;;;37.20;29.02;96734.13;4876195;29;20065;-63
2022/05/22 09:05:18;;;;;;;17.65;5.05;;;;;;;37.18;27.43;96725.56;4872512;29;20073;-62
2022/05/22 09:08:08;;;;;;;23.98;5.18;;;;;;;37.07;25.85;96718.47;4873769;29;20045;-62
2022/05/22 09:11:15;;;;;;;20.60;5.28;;;;;;;37.01;29.92;96711.47;4873401;29;20483;-63
2022/05/22 09:14:10;;;;;;;17.50;3.83;;;;;;;36.97;29.80;96707.69;4887782;29;20527;-62
2022/05/22 09:17:11;;;;;;;16.67;4.82;;;;;;;36.97;28.30;96708.50;4873314;29;20057;-63
2022/05/22 09:20:20;;;;;;;21.98;4.40;;;;;;;37.07;28.00;96697.00;4879917;29;20076;-62
2022/05/22 09:23:26;;;;;;;16.65;4.75;;;;;;;37.05;27.32;96704.50;4880216;29;20053;-62
2022/05/22 09:26:28;;;;;;;;;;;;;;;37.22;28.60;96691.69;4888197;29;20835;-63
2022/05/22 09:29:41;;;;;;;18.60;5.03;;;;;;;37.34;25.93;96703.03;4882717;29;19931;-64
2022/05/22 09:32:53;;;;;;;16.08;5.00;;;;;;;37.22;25.89;96699.75;4882850;29;20056;-64
2022/05/22 09:35:42;;;;;;;15.82;4.15;;;;;;;37.25;26.68;96687.69;4885059;29;20414;-63
2022/05/22 09:38:40;;;;;;;11.18;4.30;;;;;;;37.23;28.01;96684.44;4883047;29;20107;-63
2022/05/22 09:41:43;;;;;;;19.70;5.00;;;;;;;37.16;27.22;96680.13;4881800;29;20165;-62
2022/05/22 09:44:51;;;;;;;16.15;4.38;;;;;;;37.12;26.94;96672.81;4881285;29;20096;-63
2022/05/22 09:47:46;;;;;;;17.00;4.38;;;;;;;37.06;27.50;96668.50;4883416;29;20052;-64
2022/05/22 09:51:28;;;;;;;16.50;5.10;;;;;;;37.02;27.71;96659.38;4880809;29;20049;-64
2022/05/22 09:54:30;;;;;;;22.08;5.40;;;;;;;36.99;27.14;96660.72;4882195;29;20125;-65
2022/05/22 09:57:45;;;;;;;22.85;6.35;;;;;;;36.95;27.33;96658.81;4882385;29;20138;-64
2022/05/22 10:00:34;;;;;;;18.70;4.78;;;;;;;37.23;27.42;96649.53;4875950;29;20121;-63
2022/05/22 10:03:51;;;;;;;24.20;6.13;;;;;;;37.06;26.38;96649.72;4877814;29;20601;-64
2022/05/22 10:07:16;;;;;;;18.60;6.15;;;;;;;36.99;25.90;96643.78;4884383;29;20149;-63
2022/05/22 10:10:17;;;;;;;13.15;4.93;;;;;;;36.94;27.77;96633.84;4880774;29;20068;-64
2022/05/22 10:13:06;;;;;;;14.98;4.85;;;;;;;36.93;29.24;96626.06;4880953;29;20163;-64
2022/05/22 10:16:07;;;;;;;23.27;5.80;;;;;;;36.76;28.13;96626.25;4876373;29;20072;-64
2022/05/22 10:18:59;;;;;;;17.80;5.95;;;;;;;36.70;30.21;96620.06;4880110;29;20622;-64
2022/05/22 10:22:02;;;;;;;17.88;5.25;;;;;;;36.70;27.71;96627.31;4883248;29;20120;-64
2022/05/22 10:25:15;;;;;;;20.00;5.38;;;;;;;36.68;29.76;96619.53;4879433;29;20149;-62
2022/05/22 10:28:23;;;;;;;19.77;5.65;;;;;;;36.68;26.94;96619.53;4888193;29;20041;-62
2022/05/22 10:31:40;;;;;;;21.92;5.47;;;;;;;36.65;29.49;96619.19;4882383;29;20064;-62
2022/05/22 10:34:40;;;;;;;17.98;6.47;;;;;;;36.63;28.53;96615.97;4879934;29;20122;-62
2022/05/22 10:37:45;;;;;;;22.65;5.97;;;;;;;36.83;29.00;96626.00;4880079;29;20585;-64
2022/05/22 10:42:44;;;;;;;19.40;5.65;;;;;;;36.83;28.73;96612.59;4880149;29;20109;-62
2022/05/22 10:43:55;;;;;;;14.68;5.35;;;;;;;36.62;28.67;96614.38;4882224;29;20529;-64
2022/05/22 10:46:52;;;;;;;21.17;6.10;;;;;;;36.63;28.60;96611.44;4886574;29;20140;-64
2022/05/22 10:49:45;;;;;;;15.48;5.13;;;;;;;36.75;27.51;96611.22;4889228;29;20071;-64
2022/05/22 10:52:40;;;;;;;26.73;5.72;;;;;;;36.80;25.84;96606.66;4885474;29;20111;-63
2022/05/22 10:55:30;;;;;;;23.17;5.70;;;;;;;36.81;26.60;96607.47;4884609;29;20072;-64
2022/05/22 10:58:36;;;;;;;34.25;6.55;;;;;;;36.99;27.69;96598.13;4883862;29;20065;-63
2022/05/22 11:01:39;;;;;;;26.65;6.50;;;;;;;36.97;26.82;96600.28;4881591;29;20418;-64
2022/05/22 11:04:47;;;;;;;17.17;5.47;;;;;;;36.82;27.90;96602.91;4874035;29;20080;-62
2022/05/22 11:07:57;;;;;;;19.60;5.22;;;;;;;36.81;26.72;96599.41;4888995;29;20074;-64
2022/05/22 11:10:47;;;;;;;21.73;6.82;;;;;;;36.69;29.40;96591.63;4880230;29;20049;-64
2022/05/22 11:13:36;;;;;;;17.92;5.97;;;;;;;36.48;30.51;96592.56;4898962;29;20089;-64
2022/05/22 11:16:34;;;;;;;22.08;6.75;;;;;;;36.21;34.11;96581.16;4880161;29;20129;-63
2022/05/22 11:19:14;;;;;;;24.42;6.60;;;;;;;36.01;29.33;96582.63;4880657;29;20140;-64
2022/05/22 11:22:31;;;;;;;22.10;6.93;;;;;;;35.79;32.64;96590.00;4880157;29;20413;-66
2022/05/22 11:25:41;;;;;;;20.70;7.10;;;;;;;35.67;28.47;96592.03;4877715;29;20129;-62
2022/05/22 11:28:45;;;;;;;20.48;6.38;;;;;;;35.52;32.10;96583.88;4879671;29;20061;-62
2022/05/22 11:31:53;;;;;;;18.67;6.35;;;;;;;35.39;34.04;96581.59;4882455;29;20053;-64
2022/05/22 11:35:13;;;;;;;34.50;8.85;;;;;;;35.39;31.67;96577.03;4889485;29;20048;-64
2022/05/22 11:38:17;;;;;;;21.65;6.63;;;;;;;35.54;30.38;96576.38;4885908;29;20064;-63
2022/05/22 11:41:23;;;;;;;19.65;5.82;;;;;;;35.49;32.25;96573.66;4879982;29;20149;-62
2022/05/22 11:44:28;;;;;;;31.50;7.47;;;;;;;35.59;31.49;96573.75;4873589;29;20112;-61
2022/05/22 11:47:49;;;;;;;32.33;7.95;;;;;;;35.69;32.10;96574.59;4888714;29;20395;-62
2022/05/22 11:50:44;;;;;;;24.50;7.30;;;;;;;35.56;34.10;96567.00;4887522;29;20566;-61
2022/05/22 11:53:56;;;;;;;28.92;7.65;;;;;;;35.53;33.45;96569.38;4887232;29;20076;-60
2022/05/22 11:57:03;;;;;;;31.88;8.13;;;;;;;35.57;30.94;96571.31;4880793;29;20545;-62
2022/05/22 11:59:53;;;;;;;21.20;7.65;;;;;;;35.48;32.11;96566.69;4883347;29;20048;-61
2022/05/22 12:03:09;;;;;;;20.15;7.55;;;;;;;35.38;34.36;96556.69;4879391;29;20053;-61
2022/05/22 12:06:13;;;;;;;27.02;8.70;;;;;;;35.38;31.57;96562.03;4882866;29;20049;-62
2022/05/22 12:09:31;;;;;;;26.17;8.70;;;;;;;35.23;35.17;96553.88;4875149;29;20059;-60
2022/05/22 12:12:46;;;;;;;25.45;8.80;;;;;;;35.12;33.60;96552.94;4881451;29;20664;-62
2022/05/22 12:16:05;;;;;;;22.92;8.93;;;;;;;35.03;34.51;96548.31;4884566;29;20056;-61
2022/05/22 12:19:09;;;;;;;22.67;9.10;;;;;;;34.90;36.72;96549.50;4896413;29;20060;-61
2022/05/22 12:21:57;;;;;;;30.70;9.15;;;;;;;34.89;34.16;96548.69;4898110;29;20048;-62
2022/05/22 12:25:07;;;;;;;38.13;13.20;;;;;;;34.98;33.32;96548.25;4893995;29;20044;-62
2022/05/22 12:27:54;;;;;;;38.03;10.57;;;;;;;34.93;33.76;96547.16;4896800;29;20550;-63
2022/05/22 12:31:04;;;;;;;32.33;10.77;;;;;;;34.95;34.14;96544.22;4895744;29;20048;-62
2022/05/22 12:33:57;;;;;;;42.72;9.98;;;;;;;35.07;33.34;96539.50;4884845;29;20110;-62
2022/05/22 12:36:34;;;;;;;24.15;8.98;;;;;;;34.98;34.90;96541.03;4883941;29;20114;-62
2022/05/22 12:39:25;;;;;;;27.83;7.80;;;;;;;35.14;31.10;96548.13;4872954;29;20616;-63
2022/05/22 12:42:26;;;;;;;33.83;8.48;;;;;;;35.06;31.76;96543.25;4869891;29;20517;-62
2022/05/22 12:45:16;;;;;;;26.42;7.70;;;;;;;35.06;32.33;96543.25;4870286;29;20044;-61
2022/05/22 12:48:35;;;;;;;28.35;8.18;;;;;;;35.04;33.67;96544.56;4870996;29;20057;-61
2022/05/22 12:51:28;;;;;;;25.85;7.95;;;;;;;34.92;34.08;96531.34;4868663;29;20073;-62
2022/05/22 12:54:23;;;;;;;33.53;7.88;;;;;;;34.83;31.93;96547.03;4870291;29;20122;-63
2022/05/22 12:57:24;;;;;;;37.33;8.93;;;;;;;34.95;32.37;96546.91;4539704;29;10000001;-63
2022/05/22 13:00:17;;;;;;;29.58;8.45;;;;;;;34.99;32.45;96542.66;4887325;29;20079;-63
2022/05/22 13:03:33;;;;;;;37.88;10.45;;;;;;;34.93;34.46;96540.97;4891461;29;20116;-63
2022/05/22 13:06:43;;;;;;;36.55;10.35;;;;;;;35.02;32.97;96542.16;4553660;29;10001439;-63
2022/05/22 13:09:38;;;;;;;43.65;11.25;;;;;;;35.02;33.23;96544.00;4867593;29;20061;-63
2022/05/22 13:12:34;;;;;;;42.08;10.00;;;;;;;35.00;33.25;96538.91;4871157;29;20061;-61
2022/05/22 13:15:17;;;;;;;36.33;9.45;;;;;;;35.02;32.35;96536.78;4895109;29;20092;-61
2022/05/22 13:18:13;;;;;;;33.65;9.55;;;;;;;35.05;33.51;96536.25;4889184;29;20052;-62
2022/05/22 13:21:00;;;;;;;42.28;10.20;;;;;;;35.09;31.48;96548.09;4888639;29;20528;-62
2022/05/22 13:24:11;;;;;;;30.60;9.07;;;;;;;34.98;33.32;96549.06;4889419;29;20072;-61
2022/05/22 13:27:01;;;;;;;26.33;7.75;;;;;;;34.88;33.00;96547.06;4889319;29;20545;-62
2022/05/22 13:30:01;;;;;;;34.15;8.60;;;;;;;34.81;34.62;96551.00;4886400;29;20063;-62
2022/05/22 13:33:15;;;;;;;34.00;8.65;;;;;;;34.81;34.10;96551.81;4877654;29;20049;-62
2022/05/22 13:36:22;;;;;;;36.67;9.82;;;;;;;34.83;33.40;96559.59;4877972;29;20804;-62
2022/05/22 13:39:07;;;;;;;40.30;8.07;;;;;;;34.77;34.76;96560.63;4896085;29;20112;-62
2022/05/22 13:42:32;;;;;;;36.72;7.85;;;;;;;34.69;33.62;96563.72;4894335;29;20120;-63
2022/05/22 13:45:20;;;;;;;34.97;9.18;;;;;;;34.77;33.17;96563.31;4897852;29;20063;-64
2022/05/22 13:48:45;;;;;;;31.48;8.18;;;;;;;34.64;35.61;96569.81;4895793;29;20081;-61
2022/05/22 13:54:53;;;;;;;40.80;9.00;;;;;;;34.81;32.75;96569.75;4875989;29;20057;-65
2022/05/22 13:57:45;;;;;;;43.25;9.13;;;;;;;34.64;34.59;96577.84;4884846;29;20136;-63
2022/05/22 14:00:41;;;;;;;36.90;9.98;;;;;;;34.52;35.20;96575.28;4880869;29;20084;-63